Time;durP1;ratioP1;P1;durP2;ratioP2;P2;SDS_P1;SDS_P2;PMS_P1;PMS_P2;Temp;Humidity;BMP_temperature;BMP_pressure;BME280_temperature;BME280_humidity;BME280_pressure;Samples;Min_cycle;Max_cycle;Signal;HPM_P1;HPM_P2
2022/10/08 00:01:56;;;;;;;2.67;1.30;;;;;;;13.00;59.69;101186.38;5197946;28;20029;-79
2022/10/08 00:04:26;;;;;;;;;;;;;;;13.04;59.09;101188.00;5162441;28;20116;-78
2022/10/08 00:06:57;;;;;;;0.40;0.40;;;;;;;13.01;59.24;101188.09;5195332;28;19968;-78
2022/10/08 00:09:33;;;;;;;1.45;0.40;;;;;;;12.96;59.37;101184.72;5177727;28;20107;-77
2022/10/08 00:12:04;;;;;;;0.63;0.63;;;;;;;13.01;59.24;101188.09;5196075;28;20435;-78
2022/10/08 00:14:34;;;;;;;0.30;0.30;;;;;;;13.02;59.43;101180.16;5197483;28;20076;-79
2022/10/08 00:17:05;;;;;;;1.30;0.93;;;;;;;13.00;59.27;101181.09;5196487;28;20172;-78
2022/10/08 00:19:44;;;;;;;0.30;0.30;;;;;;;12.98;59.28;101177.66;5184682;28;20610;-79
2022/10/08 00:22:14;;;;;;;1.77;0.70;;;;;;;12.90;59.29;101173.47;5202107;28;20045;-79
2022/10/08 00:24:45;;;;;;;4.10;1.55;;;;;;;12.90;59.12;101172.59;5183616;28;20033;-78
2022/10/08 00:27:15;;;;;;;1.65;1.23;;;;;;;12.95;58.91;101178.59;5194096;28;20025;-79
2022/10/08 00:29:46;;;;;;;0.70;0.70;;;;;;;12.92;59.00;101173.41;5160259;28;20053;-77
2022/10/08 00:32:20;;;;;;;2.63;1.20;;;;;;;12.86;59.65;101171.81;5193284;28;20028;-78
2022/10/08 00:34:51;;;;;;;0.30;0.30;;;;;;;12.88;59.16;101177.06;5160548;28;20060;-78
2022/10/08 00:37:21;;;;;;;0.40;0.40;;;;;;;12.85;59.63;101162.19;5175102;28;20061;-78
2022/10/08 00:39:52;;;;;;;0.40;0.40;;;;;;;12.84;59.46;101165.75;5172793;28;20049;-78
2022/10/08 00:42:23;;;;;;;0.82;0.82;;;;;;;12.81;59.46;101165.84;5161934;28;20034;-79
2022/10/08 00:44:57;;;;;;;0.52;0.52;;;;;;;12.79;59.44;101162.38;5142135;28;20038;-77
2022/10/08 00:47:31;;;;;;;0.43;0.43;;;;;;;12.73;59.36;101162.56;5174391;28;20108;-79
2022/10/08 00:50:23;;;;;;;0.75;0.75;;;;;;;12.72;59.60;101160.84;5150358;28;20139;-78
2022/10/08 00:53:21;;;;;;;0.35;0.35;;;;;;;12.68;59.52;101154.81;5157693;28;20486;-79
2022/10/08 00:55:52;;;;;;;0.52;0.52;;;;;;;12.60;59.40;101156.78;5192993;28;20026;-78
2022/10/08 00:58:26;;;;;;;0.40;0.40;;;;;;;12.58;59.61;101151.59;5172050;28;20052;-77
2022/10/08 01:00:57;;;;;;;0.68;0.68;;;;;;;12.55;59.44;101158.69;5191577;28;20396;-79
2022/10/08 01:03:27;;;;;;;0.63;0.63;;;;;;;12.51;60.12;101152.66;5179395;28;20181;-79
2022/10/08 01:06:10;;;;;;;0.82;0.82;;;;;;;12.45;60.30;101155.44;5185569;28;20032;-77
2022/10/08 01:08:57;;;;;;;0.40;0.40;;;;;;;12.46;60.29;101156.31;5164966;28;20552;-79
2022/10/08 01:11:48;;;;;;;0.30;0.30;;;;;;;12.40;60.89;101152.94;5185927;28;20033;-77
2022/10/08 01:14:28;;;;;;;0.95;0.75;;;;;;;12.47;60.77;101152.78;5202435;28;20049;-78
2022/10/08 01:17:05;;;;;;;1.35;1.25;;;;;;;12.53;60.88;101150.81;5222427;28;20065;-76
2022/10/08 01:19:52;;;;;;;0.98;0.73;;;;;;;12.52;60.91;101157.00;5221285;28;20120;-77
2022/10/08 01:22:44;;;;;;;0.85;0.85;;;;;;;12.57;60.76;101155.13;5222701;28;20042;-79
2022/10/08 01:25:32;;;;;;;0.30;0.30;;;;;;;12.40;62.73;101144.19;5164366;28;20038;-78
2022/10/08 01:28:33;;;;;;;1.00;0.95;;;;;;;12.40;63.02;101149.47;5179433;28;20045;-78
2022/10/08 01:31:29;;;;;;;0.40;0.40;;;;;;;12.44;61.13;101146.69;5192919;28;20102;-78
2022/10/08 01:34:09;;;;;;;0.98;0.75;;;;;;;12.48;61.25;101150.09;5174160;28;20060;-78
2022/10/08 01:36:44;;;;;;;3.63;1.38;;;;;;;12.43;62.55;101152.03;5174990;28;20034;-79
2022/10/08 01:39:20;;;;;;;2.30;2.05;;;;;;;12.35;62.51;101152.22;5157517;28;20383;-78
2022/10/08 01:41:57;;;;;;;1.13;1.05;;;;;;;12.42;62.17;101145.03;5175369;28;20027;-77
2022/10/08 01:44:36;;;;;;;1.42;1.38;;;;;;;12.35;64.15;101148.75;5158447;28;20107;-78
2022/10/08 01:47:15;;;;;;;0.30;0.30;;;;;;;12.37;64.29;101150.41;5174823;28;20029;-78
2022/10/08 01:49:52;;;;;;;0.30;0.30;;;;;;;12.40;62.95;101150.31;5168933;28;20504;-78
2022/10/08 01:52:30;;;;;;;0.30;0.30;;;;;;;12.41;63.19;101145.94;5168102;28;20116;-77
2022/10/08 01:55:19;;;;;;;0.30;0.30;;;;;;;12.46;64.32;101144.00;5160523;28;20045;-78
2022/10/08 01:57:56;;;;;;;0.95;0.60;;;;;;;12.39;64.15;101143.34;5207467;28;20030;-78
2022/10/08 02:00:28;;;;;;;0.60;0.60;;;;;;;12.40;64.08;101138.94;5214033;28;20026;-78
2022/10/08 02:03:25;;;;;;;1.25;1.20;;;;;;;12.34;65.25;101139.97;5198559;28;20042;-78
2022/10/08 02:05:59;;;;;;;0.95;0.70;;;;;;;12.39;64.93;101145.09;5195805;28;20703;-79
2022/10/08 02:08:30;;;;;;;0.90;0.90;;;;;;;12.43;64.68;101141.50;5176562;28;20953;-78
2022/10/08 02:11:03;;;;;;;0.20;0.20;;;;;;;12.26;65.57;101134.94;5191742;28;20045;-78
2022/10/08 02:13:33;;;;;;;;;;;;;;;12.24;66.05;101134.09;5178907;28;20485;-76
2022/10/08 02:16:11;;;;;;;0.82;0.82;;;;;;;12.37;64.86;101134.63;5181969;28;20024;-77
2022/10/08 02:19:05;;;;;;;0.30;0.30;;;;;;;12.37;66.21;101136.38;5165280;28;20042;-78
2022/10/08 02:21:38;;;;;;;0.60;0.60;;;;;;;12.19;66.45;101132.50;5194357;28;20057;-77
2022/10/08 02:24:17;;;;;;;0.80;0.68;;;;;;;12.16;66.99;101133.44;5143645;28;20074;-77
2022/10/08 02:26:54;;;;;;;0.63;0.63;;;;;;;12.22;66.33;101124.53;5159506;28;20691;-79
2022/10/08 02:29:35;;;;;;;0.45;0.45;;;;;;;12.15;67.75;101123.81;5186039;28;20042;-78
2022/10/08 02:32:31;;;;;;;12.40;0.80;;;;;;;12.24;65.85;101120.94;5149376;28;20097;-78
2022/10/08 02:35:26;;;;;;;0.30;0.30;;;;;;;12.33;66.14;101118.97;5202664;28;20041;-77
2022/10/08 02:38:03;;;;;;;0.55;0.55;;;;;;;12.27;67.03;101126.09;5167182;28;20090;-78
2022/10/08 02:40:45;;;;;;;0.85;0.85;;;;;;;12.26;66.65;101123.53;5166147;28;20041;-79
2022/10/08 02:43:24;;;;;;;0.35;0.35;;;;;;;12.27;67.41;101122.63;5187213;28;20087;-78
2022/10/08 02:46:00;;;;;;;0.63;0.63;;;;;;;12.14;68.22;101122.09;5190819;28;20111;-77
2022/10/08 02:48:33;;;;;;;0.30;0.30;;;;;;;12.12;68.20;101114.25;5196991;28;20443;-77
2022/10/08 02:51:17;;;;;;;1.20;1.20;;;;;;;12.22;68.42;101119.28;5146612;28;20041;-77
2022/10/08 02:53:48;;;;;;;0.73;0.73;;;;;;;12.22;68.54;101121.91;5185828;28;20037;-77
2022/10/08 02:56:57;;;;;;;0.35;0.35;;;;;;;12.19;69.02;101121.97;5155520;28;20844;-78
2022/10/08 02:59:28;;;;;;;1.15;0.57;;;;;;;12.28;67.81;101116.47;5204908;28;20120;-77
2022/10/08 03:02:44;;;;;;;0.75;0.75;;;;;;;12.24;68.29;101125.31;5182570;28;20128;-78
2022/10/08 03:05:28;;;;;;;0.47;0.47;;;;;;;12.30;68.43;101119.91;5100671;28;20043;-77
2022/10/08 03:07:58;;;;;;;1.30;1.02;;;;;;;12.34;67.61;101120.69;5117833;28;20186;-77
2022/10/08 03:10:38;;;;;;;0.70;0.65;;;;;;;12.38;67.64;101119.69;5165685;28;20049;-79
2022/10/08 03:13:11;;;;;;;0.95;0.95;;;;;;;12.37;68.46;101123.22;5198958;28;20049;-75
2022/10/08 03:15:43;;;;;;;1.23;1.13;;;;;;;12.32;68.83;101118.09;5203655;28;20048;-76
2022/10/08 03:18:14;;;;;;;0.40;0.40;;;;;;;12.42;67.97;101126.59;5183697;28;20061;-77
2022/10/08 03:20:48;;;;;;;0.43;0.40;;;;;;;12.42;68.67;101121.34;5161488;28;20046;-77
2022/10/08 03:23:18;;;;;;;0.82;0.63;;;;;;;12.36;67.79;101119.75;5180940;28;20041;-79
2022/10/08 03:25:49;;;;;;;2.65;1.35;;;;;;;12.49;67.33;101132.53;5177720;28;20060;-77
2022/10/08 03:28:25;;;;;;;6.32;2.33;;;;;;;12.50;66.94;101135.16;5179493;28;20111;-78
2022/10/08 03:30:56;;;;;;;3.53;1.42;;;;;;;12.62;67.26;101143.56;5208071;28;20037;-77
2022/10/08 03:33:26;;;;;;;0.30;0.30;;;;;;;12.59;68.61;101140.16;5176791;28;20320;-77
2022/10/08 03:36:00;;;;;;;2.47;2.17;;;;;;;12.59;68.33;101145.41;5196498;28;20038;-77
2022/10/08 03:38:33;;;;;;;0.40;0.40;;;;;;;12.66;70.96;101155.75;5191160;28;20116;-78
2022/10/08 03:41:03;;;;;;;5.17;1.50;;;;;;;12.71;68.98;101162.63;5173767;28;20038;-78
2022/10/08 03:43:34;;;;;;;0.20;0.20;;;;;;;12.63;70.11;101159.34;5175071;28;20041;-77
2022/10/08 03:46:05;;;;;;;0.52;0.52;;;;;;;12.72;68.34;101171.38;5176611;28;20034;-79
2022/10/08 03:48:36;;;;;;;0.70;0.70;;;;;;;12.79;68.91;101170.28;5180100;28;20084;-78
2022/10/08 03:51:13;;;;;;;1.08;0.65;;;;;;;12.72;70.68;101169.63;5195792;28;20061;-79
2022/10/08 03:53:45;;;;;;;0.57;0.40;;;;;;;12.75;70.84;101171.28;5192807;28;20084;-77
2022/10/08 03:56:18;;;;;;;1.23;1.15;;;;;;;12.67;72.14;101175.91;5196150;28;20136;-78
2022/10/08 03:58:58;;;;;;;0.50;0.50;;;;;;;12.75;69.37;101181.81;5196996;28;20049;-79
2022/10/08 04:01:29;;;;;;;0.30;0.30;;;;;;;12.81;71.14;101181.63;5179345;28;20025;-77
2022/10/08 04:03:59;;;;;;;0.30;0.30;;;;;;;12.80;70.07;101190.44;5177407;28;20041;-78
2022/10/08 04:06:30;;;;;;;0.73;0.73;;;;;;;12.74;70.43;101185.38;5193533;28;20033;-78
2022/10/08 04:09:00;;;;;;;0.30;0.30;;;;;;;12.78;68.95;101186.97;5152580;28;20077;-77
2022/10/08 04:11:34;;;;;;;0.30;0.30;;;;;;;12.66;72.02;101193.47;5158323;28;20026;-78
2022/10/08 04:14:10;;;;;;;0.38;0.38;;;;;;;12.84;69.17;101197.38;5160729;28;20096;-78
2022/10/08 04:16:41;;;;;;;0.65;0.65;;;;;;;12.82;70.48;101199.16;5156249;28;20034;-78
2022/10/08 04:19:11;;;;;;;0.40;0.40;;;;;;;12.89;69.50;101199.88;5159312;28;20038;-77
2022/10/08 04:21:42;;;;;;;0.77;0.77;;;;;;;12.73;73.34;101200.28;5191796;28;20114;-77
2022/10/08 04:24:16;;;;;;;0.50;0.50;;;;;;;12.85;71.41;101199.06;5185194;28;20049;-78
2022/10/08 04:26:46;;;;;;;0.93;0.77;;;;;;;12.88;72.69;101206.03;5152342;28;20034;-78
2022/10/08 04:29:16;;;;;;;0.40;0.40;;;;;;;12.87;72.32;101207.78;5207433;28;20053;-78
2022/10/08 04:31:47;;;;;;;1.95;0.63;;;;;;;12.93;71.28;101200.63;5178691;28;20037;-78
2022/10/08 04:34:20;;;;;;;0.50;0.50;;;;;;;12.77;74.06;101201.06;5158240;28;20072;-77
2022/10/08 04:36:50;;;;;;;0.30;0.30;;;;;;;12.88;73.19;101196.34;5186909;28;20053;-77
2022/10/08 04:39:21;;;;;;;0.43;0.43;;;;;;;12.74;75.38;101195.91;5196598;28;20124;-77
2022/10/08 04:41:59;;;;;;;0.40;0.40;;;;;;;12.69;75.55;101197.78;5186962;28;20061;-78
2022/10/08 04:44:29;;;;;;;1.02;0.73;;;;;;;12.74;74.17;101206.44;5181069;28;20038;-79
2022/10/08 04:47:00;;;;;;;0.20;0.20;;;;;;;12.64;77.46;101194.41;5177250;28;20044;-77
2022/10/08 04:49:31;;;;;;;6.72;1.45;;;;;;;12.64;75.38;101186.53;5170613;28;20314;-78
2022/10/08 04:52:01;;;;;;;0.43;0.43;;;;;;;12.50;78.02;101193.03;5170958;28;20042;-78
2022/10/08 04:54:44;;;;;;;1.27;1.13;;;;;;;12.44;78.85;101191.44;5161491;28;20050;-78
2022/10/08 04:57:15;;;;;;;0.30;0.30;;;;;;;12.19;81.60;101199.09;5159427;28;20045;-78
2022/10/08 04:59:48;;;;;;;1.30;1.23;;;;;;;12.36;79.17;101198.69;5208952;28;20035;-79
2022/10/08 05:02:24;;;;;;;0.50;0.50;;;;;;;12.42;78.94;101195.88;5178913;28;20041;-77
2022/10/08 05:04:55;;;;;;;0.40;0.40;;;;;;;12.32;79.95;101196.16;5178727;28;20056;-76
2022/10/08 05:07:29;;;;;;;0.47;0.47;;;;;;;12.29;80.40;101202.38;5198527;28;20038;-78
2022/10/08 05:09:59;;;;;;;0.45;0.45;;;;;;;12.16;81.28;101204.47;5200188;28;20045;-77
2022/10/08 05:12:36;;;;;;;1.10;0.65;;;;;;;12.22;80.47;101203.47;5184860;28;20030;-78
2022/10/08 05:15:08;;;;;;;0.75;0.75;;;;;;;12.42;78.45;101205.56;5170901;28;20043;-78
2022/10/08 05:17:39;;;;;;;0.60;0.60;;;;;;;12.22;80.63;101209.56;5171009;28;20027;-78
2022/10/08 05:20:09;;;;;;;0.32;0.32;;;;;;;12.17;81.06;101214.09;5167972;28;20272;-78
2022/10/08 05:22:40;;;;;;;0.57;0.57;;;;;;;12.24;79.52;101213.03;5182385;28;20065;-77
2022/10/08 05:25:10;;;;;;;0.38;0.38;;;;;;;12.24;80.87;101220.91;5170912;28;20121;-76
2022/10/08 05:27:41;;;;;;;0.75;0.75;;;;;;;12.27;79.81;101215.56;5179526;28;20037;-79
2022/10/08 05:30:11;;;;;;;0.57;0.45;;;;;;;12.11;81.99;101220.38;5165186;28;20042;-78
2022/10/08 05:32:42;;;;;;;0.40;0.40;;;;;;;12.18;81.78;101217.56;5168149;28;20033;-78
2022/10/08 05:35:12;;;;;;;0.50;0.50;;;;;;;12.17;80.25;101229.88;5172159;28;20128;-77
2022/10/08 05:37:43;;;;;;;0.88;0.88;;;;;;;12.23;80.60;101236.75;5156340;28;20137;-76
2022/10/08 05:40:14;;;;;;;0.30;0.30;;;;;;;12.21;80.26;101234.16;5139011;28;20494;-78
2022/10/08 05:42:44;;;;;;;0.40;0.40;;;;;;;12.27;78.88;101227.88;5158549;28;20295;-78
2022/10/08 05:45:15;;;;;;;0.50;0.50;;;;;;;12.23;79.64;101234.97;5172430;28;20026;-78
2022/10/08 05:47:47;;;;;;;0.50;0.50;;;;;;;12.30;79.04;101248.84;5175174;28;20542;-77
2022/10/08 05:50:17;;;;;;;0.50;0.50;;;;;;;12.41;78.50;101253.81;5176972;28;20452;-77
2022/10/08 05:52:48;;;;;;;0.35;0.35;;;;;;;12.24;80.33;101248.97;5189325;28;20029;-78
2022/10/08 05:55:18;;;;;;;0.32;0.32;;;;;;;12.27;79.69;101248.91;5159618;28;20327;-78
2022/10/08 05:57:49;;;;;;;0.68;0.65;;;;;;;12.07;82.96;101259.94;5173904;28;20493;-78
2022/10/08 06:00:19;;;;;;;0.55;0.55;;;;;;;12.12;81.29;101260.69;5178979;28;20030;-79
2022/10/08 06:02:50;;;;;;;0.95;0.95;;;;;;;12.23;82.17;101261.28;5142177;28;20116;-79
2022/10/08 06:05:20;;;;;;;0.60;0.60;;;;;;;12.01;83.48;101273.25;5172021;28;20025;-79
2022/10/08 06:07:51;;;;;;;0.55;0.55;;;;;;;12.10;83.18;101276.50;5201938;28;20025;-80
2022/10/08 06:10:23;;;;;;;1.17;0.95;;;;;;;12.04;83.11;101281.03;5181176;28;20030;-78
2022/10/08 06:12:54;;;;;;;0.73;0.73;;;;;;;12.05;83.48;101282.78;5163444;28;20055;-80
2022/10/08 06:15:24;;;;;;;0.90;0.90;;;;;;;12.11;82.88;101280.00;5201240;28;20030;-79
2022/10/08 06:17:56;;;;;;;0.98;0.68;;;;;;;12.12;82.09;101295.75;5160555;28;20936;-79
2022/10/08 06:20:26;;;;;;;0.60;0.60;;;;;;;12.22;82.39;101290.28;5171234;28;20061;-77
2022/10/08 06:22:57;;;;;;;0.85;0.85;;;;;;;12.27;82.69;101299.75;5154516;28;20065;-78
2022/10/08 06:25:27;;;;;;;0.25;0.25;;;;;;;12.15;83.80;101297.44;5191832;28;20022;-78
2022/10/08 06:27:57;;;;;;;0.32;0.32;;;;;;;12.23;82.94;101306.00;5164631;28;20033;-78
2022/10/08 06:30:28;;;;;;;0.57;0.57;;;;;;;12.27;82.47;101307.66;5195925;28;20667;-80
2022/10/08 06:32:58;;;;;;;3.92;2.38;;;;;;;12.24;82.41;101315.63;5164165;28;20083;-79
2022/10/08 06:35:29;;;;;;;1.20;1.17;;;;;;;12.34;81.99;101328.56;5195101;28;20045;-78
2022/10/08 06:38:00;;;;;;;0.32;0.32;;;;;;;12.49;80.84;101327.28;5173206;28;20037;-78
2022/10/08 06:40:37;;;;;;;0.40;0.40;;;;;;;12.48;80.18;101331.72;5179890;28;20238;-80
2022/10/08 06:43:18;;;;;;;0.40;0.40;;;;;;;12.37;81.79;101339.88;5189029;28;20049;-81
2022/10/08 06:45:49;;;;;;;0.50;0.50;;;;;;;12.47;80.34;101335.25;5154099;28;21087;-80
2022/10/08 06:48:19;;;;;;;1.58;1.48;;;;;;;12.47;81.33;101351.03;5137377;28;20037;-80
2022/10/08 06:50:57;;;;;;;1.50;0.75;;;;;;;12.46;81.28;101338.78;5179303;28;20543;-77
2022/10/08 06:53:28;;;;;;;0.30;0.30;;;;;;;12.46;80.78;101351.09;5174840;28;20038;-76
2022/10/08 06:56:03;;;;;;;0.60;0.60;;;;;;;12.49;80.54;101353.63;5169300;28;20046;-78
2022/10/08 06:58:34;;;;;;;11.70;0.82;;;;;;;12.49;82.12;101356.25;5173668;28;21055;-79
2022/10/08 07:01:13;;;;;;;0.47;0.47;;;;;;;12.53;80.96;101366.66;5161423;28;20038;-78
2022/10/08 07:03:48;;;;;;;1.13;1.02;;;;;;;12.57;82.54;101370.09;5174880;28;20046;-79
2022/10/08 07:06:19;;;;;;;1.17;1.17;;;;;;;12.53;81.95;101376.34;5171117;28;20442;-76
2022/10/08 07:08:53;;;;;;;0.35;0.35;;;;;;;12.61;81.12;101379.66;5163725;28;20050;-77
2022/10/08 07:11:25;;;;;;;0.57;0.57;;;;;;;12.64;81.69;101382.22;5155067;28;20462;-77
2022/10/08 07:13:56;;;;;;;0.45;0.45;;;;;;;12.68;80.63;101381.22;5167851;28;20057;-77
2022/10/08 07:16:27;;;;;;;1.27;1.17;;;;;;;12.58;81.67;101396.41;5171728;28;20471;-77
2022/10/08 07:18:58;;;;;;;9.27;2.97;;;;;;;12.70;81.03;101395.22;5167397;28;20045;-77
2022/10/08 07:21:29;;;;;;;5.63;2.28;;;;;;;12.68;81.17;101406.69;5171047;28;20030;-77
2022/10/08 07:24:00;;;;;;;0.57;0.57;;;;;;;12.64;80.42;101408.53;5171937;28;20608;-77
2022/10/08 07:26:33;;;;;;;1.50;1.40;;;;;;;12.66;81.06;101411.13;5170819;28;20022;-79
2022/10/08 07:29:15;;;;;;;0.75;0.75;;;;;;;12.83;79.97;101411.56;5169309;28;20445;-78
2022/10/08 07:31:46;;;;;;;1.40;1.10;;;;;;;12.80;79.11;101409.00;5136536;28;20033;-78
2022/10/08 07:34:16;;;;;;;1.08;1.05;;;;;;;12.78;79.89;101413.44;5175612;28;20574;-78
2022/10/08 07:36:46;;;;;;;3.40;1.80;;;;;;;12.71;81.78;101420.66;5166016;28;20095;-78
2022/10/08 07:39:18;;;;;;;2.05;1.27;;;;;;;12.80;80.52;101422.19;5160011;28;20076;-78
2022/10/08 07:41:49;;;;;;;0.98;0.98;;;;;;;12.81;81.28;101417.78;5170186;28;20041;-78
2022/10/08 07:44:20;;;;;;;2.47;1.33;;;;;;;12.78;81.78;101423.97;5154285;28;20056;-77
2022/10/08 07:46:52;;;;;;;0.60;0.60;;;;;;;12.93;81.02;101427.16;5157817;28;20030;-77
2022/10/08 07:49:22;;;;;;;2.75;1.38;;;;;;;12.88;80.45;101430.75;5170043;28;20044;-78
2022/10/08 07:51:53;;;;;;;1.92;1.75;;;;;;;12.88;81.03;101441.28;5189594;28;21671;-78
2022/10/08 07:54:23;;;;;;;0.82;0.82;;;;;;;12.93;81.32;101442.94;5177486;28;20066;-79
2022/10/08 07:56:54;;;;;;;0.40;0.40;;;;;;;12.89;81.87;101444.81;5141541;28;20026;-78
2022/10/08 07:59:24;;;;;;;1.25;1.15;;;;;;;12.87;82.40;101450.09;5172595;28;20049;-79
2022/10/08 08:01:55;;;;;;;0.50;0.50;;;;;;;13.01;80.60;101451.53;5170717;28;20124;-79
2022/10/08 08:04:25;;;;;;;0.50;0.50;;;;;;;13.05;80.38;101450.53;5189012;28;20058;-78
2022/10/08 08:06:56;;;;;;;1.15;1.15;;;;;;;13.11;80.88;101453.00;5168116;28;20034;-79
2022/10/08 08:09:27;;;;;;;0.95;0.95;;;;;;;13.02;81.57;101453.22;5177371;28;20068;-78
2022/10/08 08:11:58;;;;;;;0.95;0.95;;;;;;;13.05;80.59;101458.44;5153714;28;20049;-77
2022/10/08 08:14:28;;;;;;;0.68;0.68;;;;;;;13.15;79.34;101464.31;5140743;28;20045;-78
2022/10/08 08:16:59;;;;;;;7.97;2.10;;;;;;;13.12;79.43;101465.25;5154774;28;20038;-78
2022/10/08 08:19:29;;;;;;;1.67;1.05;;;;;;;13.11;78.95;101463.53;5154848;28;20092;-78
2022/10/08 08:22:00;;;;;;;8.18;1.98;;;;;;;13.19;78.65;101464.19;5166102;28;20061;-79
2022/10/08 08:24:31;;;;;;;3.78;1.58;;;;;;;13.22;78.79;101465.91;5151019;28;20042;-79
2022/10/08 08:27:01;;;;;;;1.02;0.93;;;;;;;13.26;79.18;101471.97;5139280;28;20204;-77
2022/10/08 08:29:32;;;;;;;1.75;1.35;;;;;;;13.36;78.73;101474.31;5155391;28;20061;-79
2022/10/08 08:32:03;;;;;;;3.45;1.90;;;;;;;13.30;80.11;101474.47;5156932;28;20029;-76
2022/10/08 08:34:33;;;;;;;0.65;0.65;;;;;;;13.35;79.81;101482.22;5169437;28;20580;-77
2022/10/08 08:37:04;;;;;;;1.17;0.65;;;;;;;13.42;78.56;101485.63;5154017;28;20049;-79
2022/10/08 08:39:34;;;;;;;2.22;1.17;;;;;;;13.53;78.76;101492.31;5167083;28;20088;-78
2022/10/08 08:42:37;;;;;;;1.35;1.25;;;;;;;13.49;78.75;101501.25;5208702;28;20446;-79
2022/10/08 08:45:27;;;;;;;0.60;0.60;;;;;;;13.65;77.48;101498.19;5152346;28;20026;-79
2022/10/08 08:48:09;;;;;;;1.70;1.60;;;;;;;13.52;77.21;101509.03;5174936;28;20038;-78
2022/10/08 08:50:41;;;;;;;4.28;1.95;;;;;;;13.56;76.59;101506.34;5173843;28;20033;-79
2022/10/08 08:53:12;;;;;;;0.88;0.88;;;;;;;13.54;76.89;101504.59;5170991;28;20136;-79
2022/10/08 08:55:46;;;;;;;1.23;1.20;;;;;;;13.69;76.44;101513.00;5177774;28;20096;-79
2022/10/08 08:58:36;;;;;;;0.73;0.73;;;;;;;13.59;76.52;101511.53;5175995;28;20050;-79
2022/10/08 09:01:06;;;;;;;0.65;0.52;;;;;;;13.64;76.33;101517.53;5173318;28;20045;-79
2022/10/08 09:03:40;;;;;;;0.52;0.52;;;;;;;13.61;76.11;101521.13;5188147;28;20105;-79
2022/10/08 09:06:14;;;;;;;0.98;0.57;;;;;;;13.66;75.49;101513.09;5185416;28;20099;-80
2022/10/08 09:09:04;;;;;;;0.85;0.80;;;;;;;13.66;75.27;101516.59;5180143;28;20116;-80
2022/10/08 09:11:36;;;;;;;0.88;0.88;;;;;;;13.64;75.54;101530.72;5157025;28;20069;-80
2022/10/08 09:14:10;;;;;;;0.95;0.50;;;;;;;13.69;75.13;101519.16;5152064;28;20069;-78
2022/10/08 09:16:41;;;;;;;0.82;0.82;;;;;;;13.74;74.41;101532.22;5147447;28;20120;-81
2022/10/08 09:19:11;;;;;;;1.10;0.73;;;;;;;13.78;74.17;101530.34;5138482;28;20486;-79
2022/10/08 09:21:42;;;;;;;4.50;1.05;;;;;;;13.74;73.97;101532.22;5159247;28;20160;-80
2022/10/08 09:24:14;;;;;;;0.40;0.40;;;;;;;13.77;74.32;101537.38;5143597;28;20087;-79
2022/10/08 09:26:44;;;;;;;0.50;0.50;;;;;;;13.87;74.13;101531.88;5174751;28;20026;-79
2022/10/08 09:29:33;;;;;;;0.82;0.82;;;;;;;13.92;73.99;101535.25;5135289;28;20048;-78
2022/10/08 09:32:03;;;;;;;0.65;0.65;;;;;;;13.96;72.19;101540.41;5194370;28;20068;-76
2022/10/08 09:34:34;;;;;;;0.40;0.40;;;;;;;13.94;71.94;101538.69;5191479;28;20033;-77
2022/10/08 09:37:13;;;;;;;0.90;0.90;;;;;;;13.90;72.04;101550.25;5180047;28;20044;-77
2022/10/08 09:40:05;;;;;;;0.32;0.32;;;;;;;13.91;72.70;101549.34;5153036;28;20046;-76
2022/10/08 09:42:35;;;;;;;1.83;1.17;;;;;;;13.95;72.64;101558.91;5156105;28;20060;-76
2022/10/08 09:45:37;;;;;;;0.68;0.68;;;;;;;14.03;72.91;101556.91;5154743;28;20065;-77
2022/10/08 09:48:17;;;;;;;0.30;0.30;;;;;;;14.05;72.74;101563.00;5165829;28;20707;-78
2022/10/08 09:50:52;;;;;;;1.40;0.93;;;;;;;14.06;72.68;101575.31;5172098;28;20080;-79
2022/10/08 09:53:27;;;;;;;3.80;1.58;;;;;;;14.15;72.23;101574.16;5171423;28;20065;-78
2022/10/08 09:56:26;;;;;;;0.30;0.30;;;;;;;14.25;71.84;101569.50;5140754;28;20651;-79
2022/10/08 09:59:00;;;;;;;0.50;0.50;;;;;;;14.19;71.66;101580.22;5170731;28;20139;-80
2022/10/08 10:01:31;;;;;;;0.50;0.50;;;;;;;14.13;71.42;101576.00;5156881;28;20499;-79
2022/10/08 10:04:05;;;;;;;1.05;0.95;;;;;;;14.07;72.23;101586.72;5137211;28;20064;-81
2022/10/08 10:06:42;;;;;;;1.42;1.33;;;;;;;14.08;71.29;101585.81;5139941;28;20680;-78
2022/10/08 10:09:45;;;;;;;0.52;0.38;;;;;;;14.13;70.75;101587.41;5200970;28;20042;-79
2022/10/08 10:12:36;;;;;;;0.40;0.40;;;;;;;14.19;69.60;101585.50;5149435;28;20034;-78
2022/10/08 10:15:15;;;;;;;0.30;0.30;;;;;;;14.19;68.99;101586.38;5165647;28;20398;-79
2022/10/08 10:18:07;;;;;;;0.52;0.50;;;;;;;14.21;68.70;101586.31;5178179;28;20137;-79
2022/10/08 10:20:46;;;;;;;0.65;0.65;;;;;;;14.24;69.16;101578.34;5165468;28;20044;-77
2022/10/08 10:23:38;;;;;;;1.42;1.13;;;;;;;14.29;69.22;101579.94;5140645;28;20099;-78
2022/10/08 10:26:18;;;;;;;0.68;0.68;;;;;;;14.40;68.73;101576.97;5147417;28;20034;-80
2022/10/08 10:28:58;;;;;;;1.00;0.93;;;;;;;14.47;68.64;101583.81;5184722;28;20041;-78
2022/10/08 10:31:39;;;;;;;1.10;0.95;;;;;;;14.65;69.03;101584.16;5196071;28;20817;-79
2022/10/08 10:34:11;;;;;;;1.10;1.02;;;;;;;14.68;67.14;101584.09;5188551;28;20073;-78
2022/10/08 10:36:52;;;;;;;0.43;0.43;;;;;;;14.60;64.02;101586.94;5196953;28;20162;-80
2022/10/08 10:40:14;;;;;;;1.08;1.08;;;;;;;14.48;65.60;101593.47;5178003;28;20049;-79
2022/10/08 10:43:07;;;;;;;0.50;0.50;;;;;;;14.50;66.89;101600.47;5137815;28;20044;-81
2022/10/08 10:45:41;;;;;;;0.38;0.38;;;;;;;14.43;64.75;101598.00;5183341;28;20045;-78
2022/10/08 10:48:13;;;;;;;0.38;0.38;;;;;;;14.53;66.93;101598.59;5181852;28;20060;-79
2022/10/08 10:51:01;;;;;;;0.45;0.45;;;;;;;14.54;64.49;101602.09;5167055;28;20025;-79
2022/10/08 10:53:44;;;;;;;0.63;0.63;;;;;;;14.59;65.83;101608.09;5208452;28;20768;-79
2022/10/08 10:56:20;;;;;;;0.60;0.60;;;;;;;14.55;65.24;101617.03;5196939;28;20033;-78
2022/10/08 10:59:09;;;;;;;0.30;0.30;;;;;;;14.54;65.03;101620.59;5194771;28;20076;-79
2022/10/08 11:01:48;;;;;;;0.30;0.30;;;;;;;14.58;65.76;101607.25;5181908;28;20040;-80
2022/10/08 11:04:29;;;;;;;0.20;0.20;;;;;;;14.67;65.01;101607.91;5182350;28;20095;-78
2022/10/08 11:07:16;;;;;;;0.60;0.60;;;;;;;14.72;64.39;101604.22;5203469;28;20041;-79
2022/10/08 11:09:53;;;;;;;0.30;0.30;;;;;;;14.82;64.25;101607.44;5196826;28;20056;-79
2022/10/08 11:12:27;;;;;;;1.98;0.98;;;;;;;14.81;62.91;101616.28;5222513;28;20087;-79
2022/10/08 11:15:21;;;;;;;0.20;0.20;;;;;;;14.73;59.44;101628.84;5196166;28;20050;-80
2022/10/08 11:18:22;;;;;;;0.30;0.30;;;;;;;14.66;59.53;101622.91;5184657;28;20430;-80
2022/10/08 11:21:01;;;;;;;0.30;0.30;;;;;;;14.68;59.45;101626.34;5200143;28;20035;-80
2022/10/08 11:23:43;;;;;;;0.30;0.30;;;;;;;14.62;59.77;101627.38;5168602;28;20758;-79
2022/10/08 11:26:32;;;;;;;0.50;0.50;;;;;;;14.66;60.82;101625.53;5181981;28;20096;-79
2022/10/08 11:29:13;;;;;;;0.20;0.20;;;;;;;14.65;60.64;101618.50;5162277;28;20048;-78
2022/10/08 11:31:47;;;;;;;0.30;0.30;;;;;;;14.68;59.91;101612.28;5157165;28;20085;-78
2022/10/08 11:34:20;;;;;;;;;;;;;;;14.69;59.86;101617.50;5167370;28;20038;-78
2022/10/08 11:37:08;;;;;;;0.30;0.30;;;;;;;14.78;59.33;101613.75;5171909;28;19933;-79
2022/10/08 11:39:57;;;;;;;0.65;0.65;;;;;;;14.89;57.17;101624.81;5170707;28;20139;-78
2022/10/08 11:42:35;;;;;;;0.38;0.38;;;;;;;14.92;55.40;101606.25;5174291;28;20026;-79
2022/10/08 11:45:21;;;;;;;0.30;0.30;;;;;;;14.89;54.89;101614.25;5174861;28;20046;-78
2022/10/08 11:47:54;;;;;;;0.28;0.28;;;;;;;15.18;55.15;101614.25;5174814;28;20413;-78
2022/10/08 11:50:33;;;;;;;0.30;0.30;;;;;;;15.07;55.31;101609.31;5170556;28;20034;-79
2022/10/08 11:53:09;;;;;;;0.30;0.30;;;;;;;15.15;54.84;101602.00;5139114;28;20560;-79
2022/10/08 11:55:57;;;;;;;0.25;0.25;;;;;;;15.25;55.17;101605.19;5167484;28;20038;-79
2022/10/08 11:58:31;;;;;;;0.28;0.28;;;;;;;15.39;55.26;101610.94;5167666;28;20092;-80
2022/10/08 12:01:01;;;;;;;0.43;0.43;;;;;;;15.39;55.23;101602.13;5174705;28;20802;-79
2022/10/08 12:03:40;;;;;;;0.50;0.50;;;;;;;15.39;53.59;101602.13;5174390;28;20176;-79
2022/10/08 12:06:13;;;;;;;0.40;0.40;;;;;;;15.66;53.93;101599.47;5175976;28;20048;-79
2022/10/08 12:08:59;;;;;;;0.45;0.45;;;;;;;15.84;54.04;101597.97;5175124;28;20128;-80